Time;durP1;ratioP1;P1;durP2;ratioP2;P2;SDS_P1;SDS_P2;PMS_P1;PMS_P2;Temp;Humidity;BMP_temperature;BMP_pressure;BME280_temperature;BME280_humidity;BME280_pressure;Samples;Min_cycle;Max_cycle;Signal;HPM_P1;HPM_P2
2022/12/07 00:07:44;;;;;;;228.70;102.50;;;;;;;5.04;100.00;99653.30;660709;1312;138726;-80
2022/12/07 00:22:47;;;;;;;137.60;51.30;;;;;;;5.17;100.00;99647.66;660939;1313;138246;-80
2022/12/07 00:37:51;;;;;;;122.80;50.00;;;;;;;5.17;100.00;99640.31;660439;1291;138282;-80
2022/12/07 00:52:54;;;;;;;305.10;115.00;;;;;;;5.16;100.00;99637.66;660811;1307;138732;-80
2022/12/07 01:07:57;;;;;;;292.30;116.20;;;;;;;4.97;100.00;99622.78;660350;1313;139171;-80
2022/12/07 01:23:01;;;;;;;190.90;75.40;;;;;;;4.92;100.00;99604.59;660933;1313;139094;-82
2022/12/07 01:38:04;;;;;;;298.90;106.20;;;;;;;4.75;100.00;99588.55;660518;1301;138730;-82
2022/12/07 01:53:09;;;;;;;248.00;83.70;;;;;;;4.76;100.00;99579.08;661027;1312;139223;-82
2022/12/07 02:08:13;;;;;;;185.70;58.90;;;;;;;4.46;100.00;99565.70;660907;1313;138768;-82
2022/12/07 02:23:26;;;;;;;232.60;85.00;;;;;;;4.22;100.00;99553.96;661167;1295;140362;-82
2022/12/07 02:38:38;;;;;;;128.50;54.80;;;;;;;4.13;100.00;99542.99;661071;1311;137990;-82
2022/12/07 02:53:43;;;;;;;69.70;28.70;;;;;;;4.06;100.00;99525.02;661043;1299;138203;-82
2022/12/07 03:08:55;;;;;;;31.20;14.80;;;;;;;3.91;100.00;99500.73;660793;1310;138746;-82
2022/12/07 03:24:05;;;;;;;15.60;7.70;;;;;;;3.95;100.00;99497.48;661159;1312;138532;-82
2022/12/07 03:39:27;;;;;;;14.30;7.20;;;;;;;3.80;100.00;99481.75;660851;1312;138419;-82
2022/12/07 03:54:39;;;;;;;12.00;7.10;;;;;;;3.77;100.00;99469.16;661259;1312;137886;-82
2022/12/07 04:09:42;;;;;;;17.40;10.00;;;;;;;3.62;100.00;99450.89;661099;1312;137603;-82
2022/12/07 04:24:46;;;;;;;16.20;9.60;;;;;;;3.55;100.00;99441.01;661012;1308;138791;-81
2022/12/07 04:39:49;;;;;;;14.10;8.00;;;;;;;3.64;100.00;99431.55;661208;1308;151665;-82
2022/12/07 04:54:52;;;;;;;12.60;8.30;;;;;;;3.62;100.00;99419.06;661189;1303;138823;-82
2022/12/07 05:09:56;;;;;;;33.80;13.80;;;;;;;3.60;100.00;99408.00;661141;1304;138953;-82
2022/12/07 05:24:59;;;;;;;42.00;15.50;;;;;;;3.54;100.00;99391.26;660822;1307;138366;-81
2022/12/07 05:40:04;;;;;;;30.90;13.50;;;;;;;3.46;100.00;99381.27;660776;1312;138104;-81
2022/12/07 05:55:08;;;;;;;31.80;13.20;;;;;;;3.43;100.00;99381.01;660752;1313;138861;-82
2022/12/07 06:10:11;;;;;;;177.50;62.90;;;;;;;3.52;100.00;99380.22;660873;1303;141502;-82
2022/12/07 06:25:15;;;;;;;33.60;17.90;;;;;;;3.60;100.00;99373.38;660881;1312;138789;-82
2022/12/07 06:40:18;;;;;;;23.80;12.90;;;;;;;3.51;100.00;99373.17;660981;1312;138441;-83
2022/12/07 06:55:22;;;;;;;26.30;13.90;;;;;;;3.77;100.00;99365.73;660980;1312;137881;-82
2022/12/07 07:10:25;;;;;;;55.80;20.90;;;;;;;3.88;100.00;99357.79;661080;1302;138516;-83
2022/12/07 07:25:29;;;;;;;51.40;29.30;;;;;;;4.10;100.00;99356.14;660887;1311;139121;-82
2022/12/07 07:40:32;;;;;;;45.90;26.20;;;;;;;4.29;100.00;99346.59;660902;1312;138893;-82
2022/12/07 07:55:36;;;;;;;45.20;22.80;;;;;;;4.30;100.00;99354.52;660842;1312;137859;-81
2022/12/07 08:10:39;;;;;;;27.40;15.60;;;;;;;4.42;100.00;99353.92;661108;1312;138439;-82
2022/12/07 08:25:43;;;;;;;19.20;10.00;;;;;;;4.43;100.00;99361.11;660987;1311;139003;-81
2022/12/07 08:40:56;;;;;;;213.60;66.10;;;;;;;4.43;100.00;99366.81;661042;1310;138136;-81
2022/12/07 08:56:00;;;;;;;48.20;17.90;;;;;;;4.42;100.00;99370.72;660911;1311;139257;-81
2022/12/07 09:11:04;;;;;;;74.40;28.80;;;;;;;4.40;100.00;99371.56;661042;1313;139163;-81
2022/12/07 09:26:07;;;;;;;20.10;10.30;;;;;;;4.22;100.00;99367.19;660886;1303;138452;-81
2022/12/07 09:41:12;;;;;;;20.80;10.50;;;;;;;4.10;100.00;99356.02;661056;1312;138679;-80
2022/12/07 09:56:18;;;;;;;25.70;15.50;;;;;;;4.06;100.00;99352.45;660559;1305;138969;-80
2022/12/07 10:11:21;;;;;;;163.60;87.80;;;;;;;3.91;100.00;99343.39;660663;1313;139261;-80
2022/12/07 10:26:28;;;;;;;24.80;16.10;;;;;;;3.91;100.00;99343.05;660662;1307;138774;-80
2022/12/07 10:41:31;;;;;;;20.90;12.00;;;;;;;3.87;100.00;99338.56;660813;1313;138934;-80
2022/12/07 10:57:22;;;;;;;62.70;26.40;;;;;;;3.88;100.00;99326.69;660422;1305;138696;-80
2022/12/07 11:12:32;;;;;;;86.50;37.80;;;;;;;3.96;100.00;99317.08;660182;1312;138318;-79
2022/12/07 11:28:06;;;;;;;60.60;39.80;;;;;;;4.04;100.00;99307.67;660592;1299;138842;-80
2022/12/07 11:43:24;;;;;;;30.30;15.90;;;;;;;4.03;100.00;99291.77;660131;1313;138603;-80
2022/12/07 11:58:49;;;;;;;28.10;14.00;;;;;;;4.09;100.00;99282.04;660700;1313;139494;-80
2022/12/07 12:14:04;;;;;;;48.00;19.90;;;;;;;4.18;100.00;99271.15;660227;1305;138631;-80
2022/12/07 12:29:40;;;;;;;35.40;17.80;;;;;;;4.27;100.00;99263.34;660759;1293;139019;-80
2022/12/07 12:45:05;;;;;;;39.10;18.10;;;;;;;4.16;100.00;99242.50;660835;1305;138277;-80
2022/12/07 13:00:15;;;;;;;42.20;23.40;;;;;;;4.13;100.00;99230.48;660982;1310;138195;-79
2022/12/07 13:15:38;;;;;;;73.40;29.10;;;;;;;4.20;100.00;99221.09;662557;1306;138511;-81
2022/12/07 13:31:09;;;;;;;166.50;120.90;;;;;;;4.16;100.00;99207.55;660697;1309;138238;-80
2022/12/07 13:46:17;;;;;;;33.10;19.10;;;;;;;4.15;100.00;99198.63;660867;1312;138482;-81
2022/12/07 14:01:20;;;;;;;37.60;19.20;;;;;;;4.05;100.00;99201.70;660889;1312;138267;-82
2022/12/07 14:16:31;;;;;;;43.80;27.80;;;;;;;3.80;100.00;99197.73;660702;1311;138064;-81
2022/12/07 14:31:35;;;;;;;33.60;16.60;;;;;;;3.73;100.00;99181.64;661015;1305;138769;-81
2022/12/07 14:46:38;;;;;;;51.40;23.40;;;;;;;3.75;100.00;99177.69;660731;1312;138493;-81
2022/12/07 15:01:42;;;;;;;56.80;23.30;;;;;;;3.82;100.00;99174.23;660494;1312;138686;-81
2022/12/07 15:16:46;;;;;;;36.30;19.00;;;;;;;3.82;100.00;99166.45;660670;1305;138404;-81
2022/12/07 15:32:09;;;;;;;27.90;14.70;;;;;;;3.84;100.00;99159.36;660719;1310;138628;-81
2022/12/07 15:47:13;;;;;;;26.50;14.90;;;;;;;3.75;100.00;99163.91;661055;1298;139300;-82
2022/12/07 16:02:16;;;;;;;27.30;14.40;;;;;;;3.71;100.00;99163.67;660731;1310;138609;-80
2022/12/07 16:17:20;;;;;;;47.40;25.50;;;;;;;3.68;100.00;99165.11;660847;1312;139094;-81
2022/12/07 16:32:23;;;;;;;33.90;17.40;;;;;;;3.65;100.00;99160.16;660733;1306;138569;-81
2022/12/07 16:47:27;;;;;;;24.00;13.00;;;;;;;3.56;100.00;99165.67;660643;1312;138674;-81
2022/12/07 17:02:30;;;;;;;64.20;29.50;;;;;;;3.51;100.00;99157.77;660335;1312;138307;-81
2022/12/07 17:17:34;;;;;;;30.20;15.40;;;;;;;3.45;100.00;99160.77;660509;1313;139581;-80
2022/12/07 17:32:37;;;;;;;28.20;15.60;;;;;;;3.51;100.00;99166.55;660854;1312;138359;-80
2022/12/07 17:47:40;;;;;;;69.20;31.70;;;;;;;3.51;100.00;99170.39;660516;1312;138112;-80
2022/12/07 18:02:44;;;;;;;59.80;21.30;;;;;;;3.50;100.00;99178.73;661052;1304;138493;-80
2022/12/07 18:17:49;;;;;;;49.00;18.30;;;;;;;3.52;100.00;99181.21;660900;1311;138533;-80
2022/12/07 18:32:52;;;;;;;53.50;21.60;;;;;;;3.45;100.00;99184.45;660949;1310;138993;-80
2022/12/07 18:47:55;;;;;;;71.60;28.10;;;;;;;3.44;100.00;99188.15;661104;1312;138199;-80
2022/12/07 19:02:59;;;;;;;71.90;29.40;;;;;;;3.39;100.00;99187.87;660637;1312;138242;-80
2022/12/07 19:18:02;;;;;;;29.30;14.10;;;;;;;3.39;100.00;99196.83;660764;1313;138157;-79
2022/12/07 19:33:06;;;;;;;31.90;14.40;;;;;;;3.35;100.00;99200.64;660627;1312;137984;-80
2022/12/07 19:48:09;;;;;;;56.00;20.10;;;;;;;3.31;100.00;99207.66;660786;1308;138423;-80
2022/12/07 20:03:12;;;;;;;34.40;14.80;;;;;;;3.37;100.00;99215.67;660783;1312;138556;-81
2022/12/07 20:18:16;;;;;;;24.30;13.00;;;;;;;3.37;99.91;99219.96;661034;1312;138197;-80
2022/12/07 20:33:20;;;;;;;35.60;15.20;;;;;;;3.33;98.30;99213.41;660154;1312;138686;-80
2022/12/07 20:48:23;;;;;;;22.60;10.10;;;;;;;3.23;95.79;99220.70;660626;1312;137994;-80
2022/12/07 21:03:26;;;;;;;20.30;8.70;;;;;;;3.04;94.17;99229.86;660892;1310;138299;-80
2022/12/07 21:18:30;;;;;;;16.00;9.20;;;;;;;2.94;93.99;99236.29;661107;1312;138002;-81
2022/12/07 21:33:41;;;;;;;14.40;8.70;;;;;;;2.92;94.56;99250.41;661077;1305;137946;-80
2022/12/07 21:48:53;;;;;;;15.00;7.50;;;;;;;2.87;94.57;99269.44;661040;1313;138353;-80
2022/12/07 22:03:57;;;;;;;14.30;7.90;;;;;;;2.80;93.71;99287.85;660866;1305;137760;-79
2022/12/07 22:19:00;;;;;;;11.20;6.20;;;;;;;2.81;92.86;99290.77;660795;1312;138629;-79
2022/12/07 22:34:03;;;;;;;11.20;6.50;;;;;;;2.79;92.46;99302.45;660934;1312;137849;-80
2022/12/07 22:49:07;;;;;;;11.50;5.90;;;;;;;2.77;91.80;99303.50;660869;1305;138500;-80
2022/12/07 23:04:10;;;;;;;12.90;6.60;;;;;;;2.77;91.73;99312.27;660451;1302;138219;-79
2022/12/07 23:19:14;;;;;;;44.90;17.00;;;;;;;2.85;91.33;99315.31;660992;1306;138319;-79
2022/12/07 23:34:17;;;;;;;15.70;9.00;;;;;;;2.83;91.04;99321.16;661102;1313;139175;-79
2022/12/07 23:49:21;;;;;;;19.10;10.10;;;;;;;2.82;90.01;99316.24;660645;1312;137878;-79
